sensor_id;sensor_type;location;lat;lon;timestamp;P1;durP1;ratioP1;P2;durP2;ratioP2
83769;SDS011;73763;48.936;9.300;2024-01-15T00:00:02;43.05;;;20.58;;
83769;SDS011;73763;48.936;9.300;2024-01-15T00:02:28;39.75;;;19.52;;
83769;SDS011;73763;48.936;9.300;2024-01-15T00:04:53;42.38;;;20.25;;
83769;SDS011;73763;48.936;9.300;2024-01-15T00:07:19;41.57;;;20.60;;
83769;SDS011;73763;48.936;9.300;2024-01-15T00:09:44;42.05;;;20.33;;
83769;SDS011;73763;48.936;9.300;2024-01-15T00:12:10;42.93;;;20.30;;
83769;SDS011;73763;48.936;9.300;2024-01-15T00:14:35;40.97;;;19.90;;
83769;SDS011;73763;48.936;9.300;2024-01-15T00:17:01;39.30;;;19.60;;
83769;SDS011;73763;48.936;9.300;2024-01-15T00:19:26;39.53;;;20.13;;
83769;SDS011;73763;48.936;9.300;2024-01-15T00:21:52;37.95;;;18.77;;
83769;SDS011;73763;48.936;9.300;2024-01-15T00:24:17;34.77;;;18.37;;
83769;SDS011;73763;48.936;9.300;2024-01-15T00:26:43;41.67;;;19.15;;
83769;SDS011;73763;48.936;9.300;2024-01-15T00:29:09;37.67;;;18.10;;
83769;SDS011;73763;48.936;9.300;2024-01-15T00:31:34;35.87;;;18.13;;
83769;SDS011;73763;48.936;9.300;2024-01-15T00:34:00;36.55;;;17.95;;
83769;SDS011;73763;48.936;9.300;2024-01-15T00:36:26;37.07;;;18.53;;
83769;SDS011;73763;48.936;9.300;2024-01-15T00:38:52;38.35;;;18.00;;
83769;SDS011;73763;48.936;9.300;2024-01-15T00:41:18;33.70;;;16.83;;
83769;SDS011;73763;48.936;9.300;2024-01-15T00:43:44;35.30;;;17.55;;
83769;SDS011;73763;48.936;9.300;2024-01-15T00:46:10;35.40;;;18.15;;
83769;SDS011;73763;48.936;9.300;2024-01-15T00:48:36;34.55;;;17.83;;
83769;SDS011;73763;48.936;9.300;2024-01-15T00:51:01;33.67;;;17.45;;
83769;SDS011;73763;48.936;9.300;2024-01-15T00:53:27;33.27;;;16.67;;
83769;SDS011;73763;48.936;9.300;2024-01-15T00:55:52;35.30;;;17.00;;
83769;SDS011;73763;48.936;9.300;2024-01-15T00:58:18;34.20;;;16.80;;
83769;SDS011;73763;48.936;9.300;2024-01-15T01:00:44;32.53;;;17.13;;
83769;SDS011;73763;48.936;9.300;2024-01-15T01:03:09;35.17;;;17.47;;
83769;SDS011;73763;48.936;9.300;2024-01-15T01:05:35;34.58;;;17.08;;
83769;SDS011;73763;48.936;9.300;2024-01-15T01:08:00;33.27;;;16.70;;
83769;SDS011;73763;48.936;9.300;2024-01-15T01:10:26;33.53;;;16.50;;
83769;SDS011;73763;48.936;9.300;2024-01-15T01:12:52;33.30;;;16.65;;
83769;SDS011;73763;48.936;9.300;2024-01-15T01:15:18;34.08;;;17.92;;
83769;SDS011;73763;48.936;9.300;2024-01-15T01:17:43;35.20;;;17.33;;
83769;SDS011;73763;48.936;9.300;2024-01-15T01:20:10;32.17;;;15.48;;
83769;SDS011;73763;48.936;9.300;2024-01-15T01:22:35;31.63;;;16.07;;
83769;SDS011;73763;48.936;9.300;2024-01-15T01:25:01;35.80;;;16.77;;
83769;SDS011;73763;48.936;9.300;2024-01-15T01:27:27;32.47;;;15.23;;
83769;SDS011;73763;48.936;9.300;2024-01-15T01:29:52;32.90;;;15.95;;
83769;SDS011;73763;48.936;9.300;2024-01-15T01:32:18;33.60;;;16.47;;
83769;SDS011;73763;48.936;9.300;2024-01-15T01:34:44;32.03;;;15.18;;
83769;SDS011;73763;48.936;9.300;2024-01-15T01:37:12;29.40;;;14.75;;
83769;SDS011;73763;48.936;9.300;2024-01-15T01:39:37;30.23;;;15.45;;
83769;SDS011;73763;48.936;9.300;2024-01-15T01:42:03;30.15;;;14.55;;
83769;SDS011;73763;48.936;9.300;2024-01-15T01:44:29;29.70;;;15.13;;
83769;SDS011;73763;48.936;9.300;2024-01-15T01:46:54;29.97;;;15.00;;
83769;SDS011;73763;48.936;9.300;2024-01-15T01:49:22;30.33;;;14.82;;
83769;SDS011;73763;48.936;9.300;2024-01-15T01:51:48;31.88;;;15.50;;
83769;SDS011;73763;48.936;9.300;2024-01-15T01:54:14;31.83;;;15.43;;
83769;SDS011;73763;48.936;9.300;2024-01-15T01:56:40;27.83;;;14.50;;
83769;SDS011;73763;48.936;9.300;2024-01-15T01:59:07;30.83;;;14.07;;
83769;SDS011;73763;48.936;9.300;2024-01-15T02:01:34;30.85;;;14.75;;
83769;SDS011;73763;48.936;9.300;2024-01-15T02:04:00;31.92;;;15.23;;
83769;SDS011;73763;48.936;9.300;2024-01-15T02:06:26;31.80;;;15.80;;
83769;SDS011;73763;48.936;9.300;2024-01-15T02:08:51;29.30;;;13.83;;
83769;SDS011;73763;48.936;9.300;2024-01-15T02:11:17;25.20;;;13.47;;
83769;SDS011;73763;48.936;9.300;2024-01-15T02:13:42;26.70;;;13.75;;
83769;SDS011;73763;48.936;9.300;2024-01-15T02:16:08;27.63;;;13.77;;
83769;SDS011;73763;48.936;9.300;2024-01-15T02:18:40;29.63;;;14.65;;
83769;SDS011;73763;48.936;9.300;2024-01-15T02:21:09;27.70;;;13.90;;
83769;SDS011;73763;48.936;9.300;2024-01-15T02:23:35;25.75;;;13.52;;
83769;SDS011;73763;48.936;9.300;2024-01-15T02:26:01;30.08;;;14.30;;
83769;SDS011;73763;48.936;9.300;2024-01-15T02:28:27;25.53;;;13.57;;
83769;SDS011;73763;48.936;9.300;2024-01-15T02:30:53;31.55;;;14.80;;
83769;SDS011;73763;48.936;9.300;2024-01-15T02:33:18;31.50;;;14.27;;
83769;SDS011;73763;48.936;9.300;2024-01-15T02:35:44;26.70;;;13.88;;
83769;SDS011;73763;48.936;9.300;2024-01-15T02:38:09;29.70;;;14.67;;
83769;SDS011;73763;48.936;9.300;2024-01-15T02:40:35;29.05;;;14.35;;
83769;SDS011;73763;48.936;9.300;2024-01-15T02:43:00;31.33;;;14.60;;
83769;SDS011;73763;48.936;9.300;2024-01-15T02:45:26;27.07;;;13.80;;
83769;SDS011;73763;48.936;9.300;2024-01-15T02:47:52;28.17;;;13.85;;
83769;SDS011;73763;48.936;9.300;2024-01-15T02:50:17;28.70;;;13.93;;
83769;SDS011;73763;48.936;9.300;2024-01-15T02:52:43;29.83;;;14.47;;
83769;SDS011;73763;48.936;9.300;2024-01-15T02:55:08;27.10;;;13.88;;
83769;SDS011;73763;48.936;9.300;2024-01-15T02:57:34;27.95;;;13.48;;
83769;SDS011;73763;48.936;9.300;2024-01-15T03:00:00;30.07;;;13.50;;
83769;SDS011;73763;48.936;9.300;2024-01-15T03:02:26;26.35;;;13.15;;
83769;SDS011;73763;48.936;9.300;2024-01-15T03:04:52;26.85;;;13.07;;
83769;SDS011;73763;48.936;9.300;2024-01-15T03:07:17;27.05;;;13.57;;
83769;SDS011;73763;48.936;9.300;2024-01-15T03:09:43;26.77;;;13.43;;
83769;SDS011;73763;48.936;9.300;2024-01-15T03:12:09;26.33;;;13.75;;
83769;SDS011;73763;48.936;9.300;2024-01-15T03:14:35;28.25;;;13.25;;
83769;SDS011;73763;48.936;9.300;2024-01-15T03:17:00;24.98;;;13.15;;
83769;SDS011;73763;48.936;9.300;2024-01-15T03:19:26;27.23;;;13.15;;
83769;SDS011;73763;48.936;9.300;2024-01-15T03:21:52;25.80;;;13.07;;
83769;SDS011;73763;48.936;9.300;2024-01-15T03:24:17;26.60;;;13.57;;
83769;SDS011;73763;48.936;9.300;2024-01-15T03:26:43;28.52;;;13.95;;
83769;SDS011;73763;48.936;9.300;2024-01-15T03:29:08;25.90;;;13.63;;
83769;SDS011;73763;48.936;9.300;2024-01-15T03:31:34;25.33;;;13.13;;
83769;SDS011;73763;48.936;9.300;2024-01-15T03:34:00;25.63;;;13.70;;
83769;SDS011;73763;48.936;9.300;2024-01-15T03:36:25;25.93;;;13.50;;
83769;SDS011;73763;48.936;9.300;2024-01-15T03:38:51;24.80;;;12.68;;
83769;SDS011;73763;48.936;9.300;2024-01-15T03:41:16;25.33;;;12.67;;
83769;SDS011;73763;48.936;9.300;2024-01-15T03:43:42;22.90;;;12.70;;
83769;SDS011;73763;48.936;9.300;2024-01-15T03:46:07;26.40;;;13.10;;
83769;SDS011;73763;48.936;9.300;2024-01-15T03:48:33;22.83;;;12.32;;
83769;SDS011;73763;48.936;9.300;2024-01-15T03:50:58;24.97;;;13.67;;
83769;SDS011;73763;48.936;9.300;2024-01-15T03:53:24;25.63;;;13.88;;
83769;SDS011;73763;48.936;9.300;2024-01-15T03:55:50;25.58;;;13.60;;
83769;SDS011;73763;48.936;9.300;2024-01-15T03:58:15;24.13;;;12.87;;
83769;SDS011;73763;48.936;9.300;2024-01-15T04:00:41;24.73;;;13.32;;
83769;SDS011;73763;48.936;9.300;2024-01-15T04:03:07;23.93;;;13.30;;
83769;SDS011;73763;48.936;9.300;2024-01-15T04:05:33;29.13;;;13.57;;
83769;SDS011;73763;48.936;9.300;2024-01-15T04:07:58;25.50;;;12.57;;
83769;SDS011;73763;48.936;9.300;2024-01-15T04:10:24;25.00;;;12.60;;
83769;SDS011;73763;48.936;9.300;2024-01-15T04:12:49;26.75;;;13.32;;
83769;SDS011;73763;48.936;9.300;2024-01-15T04:15:15;23.00;;;12.63;;
83769;SDS011;73763;48.936;9.300;2024-01-15T04:17:40;24.67;;;12.73;;
83769;SDS011;73763;48.936;9.300;2024-01-15T04:20:06;23.67;;;11.97;;
83769;SDS011;73763;48.936;9.300;2024-01-15T04:22:33;23.83;;;12.80;;
83769;SDS011;73763;48.936;9.300;2024-01-15T04:25:00;21.83;;;11.63;;
83769;SDS011;73763;48.936;9.300;2024-01-15T04:27:25;23.98;;;12.20;;
83769;SDS011;73763;48.936;9.300;2024-01-15T04:29:51;20.67;;;10.75;;
83769;SDS011;73763;48.936;9.300;2024-01-15T04:32:17;21.63;;;11.13;;
83769;SDS011;73763;48.936;9.300;2024-01-15T04:34:42;21.83;;;11.35;;
83769;SDS011;73763;48.936;9.300;2024-01-15T04:37:08;20.07;;;10.63;;
83769;SDS011;73763;48.936;9.300;2024-01-15T04:39:33;18.77;;;10.60;;
83769;SDS011;73763;48.936;9.300;2024-01-15T04:41:59;18.17;;;10.03;;
83769;SDS011;73763;48.936;9.300;2024-01-15T04:44:24;16.17;;;9.87;;
83769;SDS011;73763;48.936;9.300;2024-01-15T04:46:50;16.65;;;9.35;;
83769;SDS011;73763;48.936;9.300;2024-01-15T04:49:15;17.17;;;9.80;;
83769;SDS011;73763;48.936;9.300;2024-01-15T04:51:41;16.17;;;9.70;;
83769;SDS011;73763;48.936;9.300;2024-01-15T04:54:06;16.33;;;9.50;;
83769;SDS011;73763;48.936;9.300;2024-01-15T04:56:32;18.90;;;9.68;;
83769;SDS011;73763;48.936;9.300;2024-01-15T04:58:57;23.20;;;10.27;;
83769;SDS011;73763;48.936;9.300;2024-01-15T05:01:23;16.48;;;9.88;;
83769;SDS011;73763;48.936;9.300;2024-01-15T05:03:48;18.97;;;10.47;;
83769;SDS011;73763;48.936;9.300;2024-01-15T05:06:14;18.02;;;10.30;;
83769;SDS011;73763;48.936;9.300;2024-01-15T05:08:39;18.73;;;11.07;;
83769;SDS011;73763;48.936;9.300;2024-01-15T05:11:05;19.03;;;10.37;;
83769;SDS011;73763;48.936;9.300;2024-01-15T05:13:30;18.05;;;10.57;;
83769;SDS011;73763;48.936;9.300;2024-01-15T05:15:56;19.47;;;10.93;;
83769;SDS011;73763;48.936;9.300;2024-01-15T05:18:21;20.63;;;10.27;;
83769;SDS011;73763;48.936;9.300;2024-01-15T05:20:47;21.57;;;10.63;;
83769;SDS011;73763;48.936;9.300;2024-01-15T05:23:12;15.23;;;9.18;;
83769;SDS011;73763;48.936;9.300;2024-01-15T05:25:38;14.93;;;9.70;;
83769;SDS011;73763;48.936;9.300;2024-01-15T05:28:04;16.58;;;9.55;;
83769;SDS011;73763;48.936;9.300;2024-01-15T05:30:30;16.48;;;9.23;;
83769;SDS011;73763;48.936;9.300;2024-01-15T05:32:56;16.17;;;9.13;;
83769;SDS011;73763;48.936;9.300;2024-01-15T05:35:21;14.17;;;8.80;;
83769;SDS011;73763;48.936;9.300;2024-01-15T05:37:47;13.32;;;7.68;;
83769;SDS011;73763;48.936;9.300;2024-01-15T05:40:12;13.53;;;8.23;;
83769;SDS011;73763;48.936;9.300;2024-01-15T05:42:38;13.18;;;8.20;;
83769;SDS011;73763;48.936;9.300;2024-01-15T05:45:04;15.95;;;9.13;;
83769;SDS011;73763;48.936;9.300;2024-01-15T05:47:30;15.05;;;9.02;;
83769;SDS011;73763;48.936;9.300;2024-01-15T05:49:56;14.25;;;8.32;;
83769;SDS011;73763;48.936;9.300;2024-01-15T05:52:22;13.98;;;7.97;;
83769;SDS011;73763;48.936;9.300;2024-01-15T05:54:49;14.98;;;8.15;;
83769;SDS011;73763;48.936;9.300;2024-01-15T05:57:15;13.65;;;7.80;;
83769;SDS011;73763;48.936;9.300;2024-01-15T05:59:41;12.77;;;7.90;;
83769;SDS011;73763;48.936;9.300;2024-01-15T06:02:07;13.38;;;8.00;;
83769;SDS011;73763;48.936;9.300;2024-01-15T06:04:33;16.02;;;8.25;;
83769;SDS011;73763;48.936;9.300;2024-01-15T06:06:58;14.93;;;8.83;;
83769;SDS011;73763;48.936;9.300;2024-01-15T06:09:24;13.55;;;8.00;;
83769;SDS011;73763;48.936;9.300;2024-01-15T06:11:49;12.57;;;7.67;;
83769;SDS011;73763;48.936;9.300;2024-01-15T06:14:15;15.30;;;8.20;;
83769;SDS011;73763;48.936;9.300;2024-01-15T06:16:40;14.97;;;8.43;;
83769;SDS011;73763;48.936;9.300;2024-01-15T06:19:06;14.70;;;8.47;;
83769;SDS011;73763;48.936;9.300;2024-01-15T06:21:31;16.67;;;8.23;;
83769;SDS011;73763;48.936;9.300;2024-01-15T06:23:57;14.17;;;8.07;;
83769;SDS011;73763;48.936;9.300;2024-01-15T06:26:22;16.20;;;8.45;;
83769;SDS011;73763;48.936;9.300;2024-01-15T06:28:48;14.73;;;8.63;;
83769;SDS011;73763;48.936;9.300;2024-01-15T06:31:14;15.45;;;8.73;;
83769;SDS011;73763;48.936;9.300;2024-01-15T06:33:39;16.53;;;8.80;;
83769;SDS011;73763;48.936;9.300;2024-01-15T06:36:05;16.48;;;8.70;;
83769;SDS011;73763;48.936;9.300;2024-01-15T06:38:31;15.93;;;8.23;;
83769;SDS011;73763;48.936;9.300;2024-01-15T06:40:56;15.07;;;8.15;;
83769;SDS011;73763;48.936;9.300;2024-01-15T06:43:22;15.00;;;8.17;;
83769;SDS011;73763;48.936;9.300;2024-01-15T06:45:47;14.23;;;8.50;;
83769;SDS011;73763;48.936;9.300;2024-01-15T06:48:13;16.67;;;8.87;;
83769;SDS011;73763;48.936;9.300;2024-01-15T06:50:38;13.75;;;8.45;;
83769;SDS011;73763;48.936;9.300;2024-01-15T06:53:04;15.23;;;8.57;;
83769;SDS011;73763;48.936;9.300;2024-01-15T06:55:29;14.55;;;8.52;;
83769;SDS011;73763;48.936;9.300;2024-01-15T06:57:55;14.47;;;8.50;;
83769;SDS011;73763;48.936;9.300;2024-01-15T07:00:20;16.87;;;8.73;;
83769;SDS011;73763;48.936;9.300;2024-01-15T07:02:46;15.67;;;8.93;;
83769;SDS011;73763;48.936;9.300;2024-01-15T07:05:11;15.47;;;9.20;;
83769;SDS011;73763;48.936;9.300;2024-01-15T07:07:37;18.43;;;9.83;;
83769;SDS011;73763;48.936;9.300;2024-01-15T07:10:03;17.07;;;9.07;;
83769;SDS011;73763;48.936;9.300;2024-01-15T07:12:29;30.42;;;10.23;;
83769;SDS011;73763;48.936;9.300;2024-01-15T07:14:55;16.97;;;8.73;;
83769;SDS011;73763;48.936;9.300;2024-01-15T07:17:21;17.48;;;8.90;;
83769;SDS011;73763;48.936;9.300;2024-01-15T07:19:47;18.73;;;10.35;;
83769;SDS011;73763;48.936;9.300;2024-01-15T07:22:12;16.67;;;9.93;;
83769;SDS011;73763;48.936;9.300;2024-01-15T07:24:38;15.77;;;8.90;;
83769;SDS011;73763;48.936;9.300;2024-01-15T07:27:03;14.60;;;7.77;;
83769;SDS011;73763;48.936;9.300;2024-01-15T07:29:29;14.73;;;7.72;;
83769;SDS011;73763;48.936;9.300;2024-01-15T07:31:55;11.73;;;6.72;;
83769;SDS011;73763;48.936;9.300;2024-01-15T07:34:20;12.53;;;7.67;;
83769;SDS011;73763;48.936;9.300;2024-01-15T07:36:46;14.93;;;7.85;;
83769;SDS011;73763;48.936;9.300;2024-01-15T07:39:12;13.65;;;7.88;;
83769;SDS011;73763;48.936;9.300;2024-01-15T07:41:37;12.93;;;7.30;;
83769;SDS011;73763;48.936;9.300;2024-01-15T07:44:03;13.37;;;7.67;;
83769;SDS011;73763;48.936;9.300;2024-01-15T07:46:29;13.80;;;8.13;;
83769;SDS011;73763;48.936;9.300;2024-01-15T07:48:54;12.73;;;7.63;;
83769;SDS011;73763;48.936;9.300;2024-01-15T07:51:20;19.33;;;8.40;;
83769;SDS011;73763;48.936;9.300;2024-01-15T07:53:45;12.03;;;7.70;;
83769;SDS011;73763;48.936;9.300;2024-01-15T07:56:11;15.68;;;8.23;;
83769;SDS011;73763;48.936;9.300;2024-01-15T07:58:36;12.60;;;7.87;;
83769;SDS011;73763;48.936;9.300;2024-01-15T08:01:02;15.35;;;8.10;;
83769;SDS011;73763;48.936;9.300;2024-01-15T08:03:27;13.37;;;7.60;;
83769;SDS011;73763;48.936;9.300;2024-01-15T08:05:53;12.75;;;7.45;;
83769;SDS011;73763;48.936;9.300;2024-01-15T08:08:18;12.10;;;7.67;;
83769;SDS011;73763;48.936;9.300;2024-01-15T08:10:44;14.25;;;8.20;;
83769;SDS011;73763;48.936;9.300;2024-01-15T08:13:09;12.27;;;7.57;;
83769;SDS011;73763;48.936;9.300;2024-01-15T08:15:35;13.10;;;8.13;;
83769;SDS011;73763;48.936;9.300;2024-01-15T08:18:00;13.23;;;7.50;;
83769;SDS011;73763;48.936;9.300;2024-01-15T08:20:26;13.10;;;7.57;;
83769;SDS011;73763;48.936;9.300;2024-01-15T08:22:51;12.83;;;7.73;;
83769;SDS011;73763;48.936;9.300;2024-01-15T08:25:17;11.67;;;7.27;;
83769;SDS011;73763;48.936;9.300;2024-01-15T08:27:42;15.33;;;8.03;;
83769;SDS011;73763;48.936;9.300;2024-01-15T08:30:08;12.87;;;7.20;;
83769;SDS011;73763;48.936;9.300;2024-01-15T08:32:34;13.77;;;8.10;;
83769;SDS011;73763;48.936;9.300;2024-01-15T08:34:59;13.43;;;8.38;;
83769;SDS011;73763;48.936;9.300;2024-01-15T08:37:25;15.20;;;8.23;;
83769;SDS011;73763;48.936;9.300;2024-01-15T08:39:50;13.30;;;7.97;;
83769;SDS011;73763;48.936;9.300;2024-01-15T08:42:16;13.43;;;7.83;;
83769;SDS011;73763;48.936;9.300;2024-01-15T08:44:41;14.55;;;8.27;;
83769;SDS011;73763;48.936;9.300;2024-01-15T08:47:07;14.23;;;8.30;;
83769;SDS011;73763;48.936;9.300;2024-01-15T08:49:32;14.93;;;8.13;;
83769;SDS011;73763;48.936;9.300;2024-01-15T08:51:58;14.07;;;8.33;;
83769;SDS011;73763;48.936;9.300;2024-01-15T08:54:23;16.63;;;8.98;;
83769;SDS011;73763;48.936;9.300;2024-01-15T08:56:49;14.07;;;9.03;;
83769;SDS011;73763;48.936;9.300;2024-01-15T08:59:14;18.87;;;10.57;;
83769;SDS011;73763;48.936;9.300;2024-01-15T09:01:40;18.93;;;10.90;;
83769;SDS011;73763;48.936;9.300;2024-01-15T09:04:05;18.03;;;9.67;;
83769;SDS011;73763;48.936;9.300;2024-01-15T09:06:31;18.90;;;10.97;;
83769;SDS011;73763;48.936;9.300;2024-01-15T09:08:56;18.65;;;11.18;;
83769;SDS011;73763;48.936;9.300;2024-01-15T09:11:22;19.53;;;11.73;;
83769;SDS011;73763;48.936;9.300;2024-01-15T09:13:47;19.38;;;10.70;;
83769;SDS011;73763;48.936;9.300;2024-01-15T09:16:13;20.67;;;11.03;;
83769;SDS011;73763;48.936;9.300;2024-01-15T09:18:38;18.15;;;10.52;;
83769;SDS011;73763;48.936;9.300;2024-01-15T09:21:04;28.00;;;15.27;;
83769;SDS011;73763;48.936;9.300;2024-01-15T09:23:29;18.48;;;10.35;;
83769;SDS011;73763;48.936;9.300;2024-01-15T09:25:55;14.50;;;8.13;;
83769;SDS011;73763;48.936;9.300;2024-01-15T09:28:21;14.70;;;8.70;;
83769;SDS011;73763;48.936;9.300;2024-01-15T09:30:46;13.70;;;9.10;;
83769;SDS011;73763;48.936;9.300;2024-01-15T09:33:12;13.77;;;8.43;;
83769;SDS011;73763;48.936;9.300;2024-01-15T09:35:37;14.95;;;8.93;;
83769;SDS011;73763;48.936;9.300;2024-01-15T09:38:03;14.83;;;8.83;;
83769;SDS011;73763;48.936;9.300;2024-01-15T09:40:30;14.07;;;8.80;;
83769;SDS011;73763;48.936;9.300;2024-01-15T09:42:56;13.25;;;8.23;;
83769;SDS011;73763;48.936;9.300;2024-01-15T09:45:22;16.25;;;8.98;;
83769;SDS011;73763;48.936;9.300;2024-01-15T09:47:48;13.43;;;8.47;;
83769;SDS011;73763;48.936;9.300;2024-01-15T09:50:14;16.10;;;8.93;;
83769;SDS011;73763;48.936;9.300;2024-01-15T09:52:39;13.23;;;8.48;;
83769;SDS011;73763;48.936;9.300;2024-01-15T09:55:06;15.98;;;8.75;;
83769;SDS011;73763;48.936;9.300;2024-01-15T09:57:34;14.82;;;8.38;;
83769;SDS011;73763;48.936;9.300;2024-01-15T10:00:00;13.95;;;8.75;;
83769;SDS011;73763;48.936;9.300;2024-01-15T10:02:27;13.50;;;8.45;;
83769;SDS011;73763;48.936;9.300;2024-01-15T10:04:52;15.07;;;7.97;;
83769;SDS011;73763;48.936;9.300;2024-01-15T10:07:18;14.80;;;8.27;;
83769;SDS011;73763;48.936;9.300;2024-01-15T10:09:44;13.90;;;7.35;;
83769;SDS011;73763;48.936;9.300;2024-01-15T10:12:10;12.00;;;7.43;;
83769;SDS011;73763;48.936;9.300;2024-01-15T10:14:36;12.55;;;6.45;;
83769;SDS011;73763;48.936;9.300;2024-01-15T10:17:11;11.33;;;6.20;;
83769;SDS011;73763;48.936;9.300;2024-01-15T10:19:37;11.27;;;5.70;;
83769;SDS011;73763;48.936;9.300;2024-01-15T10:22:03;8.63;;;5.20;;
83769;SDS011;73763;48.936;9.300;2024-01-15T10:24:29;8.25;;;5.35;;
83769;SDS011;73763;48.936;9.300;2024-01-15T10:27:04;7.73;;;4.83;;
83769;SDS011;73763;48.936;9.300;2024-01-15T10:29:30;10.60;;;4.95;;
83769;SDS011;73763;48.936;9.300;2024-01-15T10:31:56;7.50;;;5.00;;
83769;SDS011;73763;48.936;9.300;2024-01-15T10:34:21;8.10;;;4.82;;
83769;SDS011;73763;48.936;9.300;2024-01-15T10:36:47;7.70;;;4.50;;
83769;SDS011;73763;48.936;9.300;2024-01-15T10:39:13;8.33;;;4.93;;
83769;SDS011;73763;48.936;9.300;2024-01-15T10:41:39;8.82;;;4.82;;
83769;SDS011;73763;48.936;9.300;2024-01-15T10:44:04;6.90;;;4.50;;
83769;SDS011;73763;48.936;9.300;2024-01-15T10:46:30;8.67;;;4.70;;
83769;SDS011;73763;48.936;9.300;2024-01-15T10:48:56;7.88;;;4.45;;
83769;SDS011;73763;48.936;9.300;2024-01-15T10:51:22;8.93;;;4.28;;
83769;SDS011;73763;48.936;9.300;2024-01-15T10:53:48;7.95;;;4.68;;
83769;SDS011;73763;48.936;9.300;2024-01-15T10:56:14;9.52;;;4.40;;
83769;SDS011;73763;48.936;9.300;2024-01-15T10:58:41;9.00;;;5.00;;
83769;SDS011;73763;48.936;9.300;2024-01-15T11:01:07;7.97;;;4.80;;
83769;SDS011;73763;48.936;9.300;2024-01-15T11:03:33;9.48;;;4.72;;
83769;SDS011;73763;48.936;9.300;2024-01-15T11:05:59;8.75;;;4.80;;
83769;SDS011;73763;48.936;9.300;2024-01-15T11:08:25;9.55;;;5.60;;
83769;SDS011;73763;48.936;9.300;2024-01-15T11:10:51;11.23;;;5.87;;
83769;SDS011;73763;48.936;9.300;2024-01-15T11:13:20;8.80;;;5.93;;
83769;SDS011;73763;48.936;9.300;2024-01-15T11:18:25;9.98;;;6.70;;
83769;SDS011;73763;48.936;9.300;2024-01-15T11:23:56;12.68;;;6.95;;
83769;SDS011;73763;48.936;9.300;2024-01-15T11:26:26;11.52;;;6.80;;
83769;SDS011;73763;48.936;9.300;2024-01-15T11:28:55;10.10;;;6.88;;
83769;SDS011;73763;48.936;9.300;2024-01-15T11:31:26;12.07;;;7.70;;
83769;SDS011;73763;48.936;9.300;2024-01-15T11:33:55;12.65;;;7.78;;
83769;SDS011;73763;48.936;9.300;2024-01-15T11:37:06;12.20;;;7.80;;
83769;SDS011;73763;48.936;9.300;2024-01-15T11:42:02;12.60;;;6.95;;
83769;SDS011;73763;48.936;9.300;2024-01-15T11:44:30;12.67;;;7.10;;
83769;SDS011;73763;48.936;9.300;2024-01-15T11:46:59;12.68;;;7.30;;
83769;SDS011;73763;48.936;9.300;2024-01-15T11:50:12;10.65;;;6.55;;
83769;SDS011;73763;48.936;9.300;2024-01-15T11:52:12;11.05;;;7.03;;
83769;SDS011;73763;48.936;9.300;2024-01-15T11:54:42;13.90;;;7.68;;
83769;SDS011;73763;48.936;9.300;2024-01-15T11:57:17;10.52;;;6.95;;
83769;SDS011;73763;48.936;9.300;2024-01-15T11:59:50;12.30;;;6.57;;
83769;SDS011;73763;48.936;9.300;2024-01-15T12:02:16;12.20;;;7.07;;
83769;SDS011;73763;48.936;9.300;2024-01-15T12:04:41;15.82;;;8.00;;
83769;SDS011;73763;48.936;9.300;2024-01-15T12:07:07;11.13;;;6.83;;
83769;SDS011;73763;48.936;9.300;2024-01-15T12:09:32;11.03;;;7.20;;
83769;SDS011;73763;48.936;9.300;2024-01-15T12:12:01;11.80;;;7.20;;
83769;SDS011;73763;48.936;9.300;2024-01-15T12:14:32;12.07;;;6.88;;
83769;SDS011;73763;48.936;9.300;2024-01-15T12:16:58;11.23;;;7.10;;
83769;SDS011;73763;48.936;9.300;2024-01-15T12:19:23;13.23;;;7.53;;
83769;SDS011;73763;48.936;9.300;2024-01-15T12:21:52;10.27;;;6.95;;
83769;SDS011;73763;48.936;9.300;2024-01-15T12:24:17;12.73;;;7.57;;
83769;SDS011;73763;48.936;9.300;2024-01-15T12:26:43;12.40;;;8.00;;
83769;SDS011;73763;48.936;9.300;2024-01-15T12:29:10;12.50;;;7.72;;
83769;SDS011;73763;48.936;9.300;2024-01-15T12:31:36;16.00;;;8.43;;
83769;SDS011;73763;48.936;9.300;2024-01-15T12:34:01;13.43;;;8.03;;
83769;SDS011;73763;48.936;9.300;2024-01-15T12:36:30;12.48;;;7.93;;
83769;SDS011;73763;48.936;9.300;2024-01-15T12:38:59;14.07;;;8.03;;
83769;SDS011;73763;48.936;9.300;2024-01-15T12:41:24;11.75;;;7.70;;
83769;SDS011;73763;48.936;9.300;2024-01-15T12:43:50;10.23;;;7.07;;
83769;SDS011;73763;48.936;9.300;2024-01-15T12:46:16;13.40;;;7.13;;
83769;SDS011;73763;48.936;9.300;2024-01-15T12:48:41;10.53;;;6.20;;
83769;SDS011;73763;48.936;9.300;2024-01-15T12:51:07;12.02;;;7.05;;
83769;SDS011;73763;48.936;9.300;2024-01-15T12:53:33;11.93;;;6.82;;
83769;SDS011;73763;48.936;9.300;2024-01-15T12:55:59;10.93;;;6.88;;
83769;SDS011;73763;48.936;9.300;2024-01-15T12:58:24;12.53;;;6.20;;
83769;SDS011;73763;48.936;9.300;2024-01-15T13:00:50;9.05;;;6.18;;
83769;SDS011;73763;48.936;9.300;2024-01-15T13:03:15;9.87;;;6.13;;
83769;SDS011;73763;48.936;9.300;2024-01-15T13:05:41;7.95;;;5.28;;
83769;SDS011;73763;48.936;9.300;2024-01-15T13:08:06;13.20;;;6.03;;
83769;SDS011;73763;48.936;9.300;2024-01-15T13:10:32;11.30;;;6.13;;
83769;SDS011;73763;48.936;9.300;2024-01-15T13:12:57;7.75;;;5.00;;
83769;SDS011;73763;48.936;9.300;2024-01-15T13:15:25;8.63;;;5.38;;
83769;SDS011;73763;48.936;9.300;2024-01-15T13:17:50;9.70;;;5.00;;
83769;SDS011;73763;48.936;9.300;2024-01-15T13:20:16;7.83;;;5.03;;
83769;SDS011;73763;48.936;9.300;2024-01-15T13:22:41;7.97;;;4.95;;
83769;SDS011;73763;48.936;9.300;2024-01-15T13:25:07;7.50;;;5.13;;
83769;SDS011;73763;48.936;9.300;2024-01-15T13:27:33;10.25;;;5.43;;
83769;SDS011;73763;48.936;9.300;2024-01-15T13:29:58;10.32;;;6.43;;
83769;SDS011;73763;48.936;9.300;2024-01-15T13:32:24;9.90;;;6.50;;
83769;SDS011;73763;48.936;9.300;2024-01-15T13:34:50;11.02;;;7.22;;
83769;SDS011;73763;48.936;9.300;2024-01-15T13:37:15;10.43;;;7.10;;
83769;SDS011;73763;48.936;9.300;2024-01-15T13:39:41;11.02;;;7.20;;
83769;SDS011;73763;48.936;9.300;2024-01-15T13:42:07;8.90;;;6.60;;
83769;SDS011;73763;48.936;9.300;2024-01-15T13:44:32;9.83;;;6.73;;
83769;SDS011;73763;48.936;9.300;2024-01-15T13:46:58;9.53;;;7.00;;
83769;SDS011;73763;48.936;9.300;2024-01-15T13:49:23;10.57;;;7.03;;
83769;SDS011;73763;48.936;9.300;2024-01-15T13:51:50;10.07;;;6.45;;
83769;SDS011;73763;48.936;9.300;2024-01-15T13:54:15;11.17;;;7.33;;
83769;SDS011;73763;48.936;9.300;2024-01-15T13:56:41;10.15;;;6.82;;
83769;SDS011;73763;48.936;9.300;2024-01-15T13:59:06;11.83;;;7.20;;
83769;SDS011;73763;48.936;9.300;2024-01-15T14:01:32;12.43;;;7.32;;
83769;SDS011;73763;48.936;9.300;2024-01-15T14:03:57;10.87;;;7.63;;
83769;SDS011;73763;48.936;9.300;2024-01-15T14:06:23;12.87;;;8.43;;
83769;SDS011;73763;48.936;9.300;2024-01-15T14:08:48;11.75;;;8.00;;
83769;SDS011;73763;48.936;9.300;2024-01-15T14:11:14;11.87;;;7.43;;
83769;SDS011;73763;48.936;9.300;2024-01-15T14:13:40;12.53;;;8.03;;
83769;SDS011;73763;48.936;9.300;2024-01-15T14:16:05;13.10;;;8.15;;
83769;SDS011;73763;48.936;9.300;2024-01-15T14:18:31;12.10;;;7.70;;
83769;SDS011;73763;48.936;9.300;2024-01-15T14:20:56;11.60;;;8.20;;
83769;SDS011;73763;48.936;9.300;2024-01-15T14:23:22;12.80;;;8.83;;
83769;SDS011;73763;48.936;9.300;2024-01-15T14:25:47;12.77;;;8.15;;
83769;SDS011;73763;48.936;9.300;2024-01-15T14:28:13;13.07;;;8.63;;
83769;SDS011;73763;48.936;9.300;2024-01-15T14:30:38;13.43;;;9.38;;